sensor_id;sensor_type;location;lat;lon;timestamp;pressure;altitude;pressure_sealevel;temperature;humidity
15604;BME280;7902;49.042;9.092;2023-04-19T00:01:52;99685.97;;;14.69;57.05
15604;BME280;7902;49.042;9.092;2023-04-19T00:04:18;99684.28;;;14.68;56.68
15604;BME280;7902;49.042;9.092;2023-04-19T00:06:45;99687.63;;;14.70;56.73
15604;BME280;7902;49.042;9.092;2023-04-19T00:09:12;99697.16;;;14.73;57.04
15604;BME280;7902;49.042;9.092;2023-04-19T00:11:38;99692.94;;;14.70;56.60
15604;BME280;7902;49.042;9.092;2023-04-19T00:14:04;99686.56;;;14.62;57.46
15604;BME280;7902;49.042;9.092;2023-04-19T00:16:30;99694.25;;;14.65;56.70
15604;BME280;7902;49.042;9.092;2023-04-19T00:18:55;99685.25;;;14.56;57.04
15604;BME280;7902;49.042;9.092;2023-04-19T00:21:21;99701.84;;;14.58;56.79
15604;BME280;7902;49.042;9.092;2023-04-19T00:23:47;99688.25;;;14.63;56.89
15604;BME280;7902;49.042;9.092;2023-04-19T00:26:13;99686.47;;;14.63;56.82
15604;BME280;7902;49.042;9.092;2023-04-19T00:28:40;99681.53;;;14.59;57.36
15604;BME280;7902;49.042;9.092;2023-04-19T00:31:06;99684.19;;;14.59;57.47
15604;BME280;7902;49.042;9.092;2023-04-19T00:33:32;99683.69;;;14.65;56.34
15604;BME280;7902;49.042;9.092;2023-04-19T00:35:58;99687.06;;;14.67;56.61
15604;BME280;7902;49.042;9.092;2023-04-19T00:38:24;99677.44;;;14.66;57.09
15604;BME280;7902;49.042;9.092;2023-04-19T00:40:50;99679.59;;;14.72;57.28
15604;BME280;7902;49.042;9.092;2023-04-19T00:43:17;99673.72;;;14.68;56.49
15604;BME280;7902;49.042;9.092;2023-04-19T00:45:43;99666.75;;;14.67;56.75
15604;BME280;7902;49.042;9.092;2023-04-19T00:48:09;99678.06;;;14.58;56.88
15604;BME280;7902;49.042;9.092;2023-04-19T00:50:35;99669.75;;;14.63;56.90
15604;BME280;7902;49.042;9.092;2023-04-19T00:53:01;99670.25;;;14.57;57.21
15604;BME280;7902;49.042;9.092;2023-04-19T00:55:27;99674.78;;;14.66;56.33
15604;BME280;7902;49.042;9.092;2023-04-19T00:57:53;99670.94;;;14.70;56.63
15604;BME280;7902;49.042;9.092;2023-04-19T01:00:19;99667.44;;;14.69;56.99
15604;BME280;7902;49.042;9.092;2023-04-19T01:02:45;99663.53;;;14.64;57.07
15604;BME280;7902;49.042;9.092;2023-04-19T01:05:12;99665.78;;;14.68;56.80
15604;BME280;7902;49.042;9.092;2023-04-19T01:07:38;99661.72;;;14.64;56.29
15604;BME280;7902;49.042;9.092;2023-04-19T01:10:04;99667.97;;;14.63;57.30
15604;BME280;7902;49.042;9.092;2023-04-19T01:12:31;99665.19;;;14.65;56.50
15604;BME280;7902;49.042;9.092;2023-04-19T01:14:56;99658.09;;;14.65;56.80
15604;BME280;7902;49.042;9.092;2023-04-19T01:17:22;99651.63;;;14.58;57.19
15604;BME280;7902;49.042;9.092;2023-04-19T01:19:49;99652.00;;;14.54;56.84
15604;BME280;7902;49.042;9.092;2023-04-19T01:22:20;99652.97;;;14.53;57.04
15604;BME280;7902;49.042;9.092;2023-04-19T01:24:47;99649.69;;;14.60;57.10
15604;BME280;7902;49.042;9.092;2023-04-19T01:27:13;99650.78;;;14.58;57.63
15604;BME280;7902;49.042;9.092;2023-04-19T01:29:41;99644.06;;;14.54;57.67
15604;BME280;7902;49.042;9.092;2023-04-19T01:32:07;99639.84;;;14.51;57.62
15604;BME280;7902;49.042;9.092;2023-04-19T01:34:33;99641.53;;;14.52;56.85
15604;BME280;7902;49.042;9.092;2023-04-19T01:36:58;99638.31;;;14.48;57.71
15604;BME280;7902;49.042;9.092;2023-04-19T01:39:24;99642.38;;;14.41;56.92
15604;BME280;7902;49.042;9.092;2023-04-19T01:41:50;99636.16;;;14.42;57.48
15604;BME280;7902;49.042;9.092;2023-04-19T01:44:16;99634.00;;;14.36;57.72
15604;BME280;7902;49.042;9.092;2023-04-19T01:46:42;99630.59;;;14.45;57.21
15604;BME280;7902;49.042;9.092;2023-04-19T01:49:08;99632.56;;;14.43;57.81
15604;BME280;7902;49.042;9.092;2023-04-19T01:51:35;99633.41;;;14.44;57.29
15604;BME280;7902;49.042;9.092;2023-04-19T01:54:01;99631.13;;;14.39;57.25
15604;BME280;7902;49.042;9.092;2023-04-19T01:56:27;99626.78;;;14.38;56.96
15604;BME280;7902;49.042;9.092;2023-04-19T01:58:53;99624.63;;;14.43;57.20
15604;BME280;7902;49.042;9.092;2023-04-19T02:01:19;99616.97;;;14.40;57.57
15604;BME280;7902;49.042;9.092;2023-04-19T02:03:44;99616.22;;;14.38;57.84
15604;BME280;7902;49.042;9.092;2023-04-19T02:06:11;99610.22;;;14.36;58.10
15604;BME280;7902;49.042;9.092;2023-04-19T02:08:38;99611.91;;;14.37;57.18
15604;BME280;7902;49.042;9.092;2023-04-19T02:11:06;99600.50;;;14.37;57.75
15604;BME280;7902;49.042;9.092;2023-04-19T02:13:32;99607.06;;;14.31;57.86
15604;BME280;7902;49.042;9.092;2023-04-19T02:15:59;99607.31;;;14.28;57.74
15604;BME280;7902;49.042;9.092;2023-04-19T02:18:27;99601.78;;;14.31;58.04
15604;BME280;7902;49.042;9.092;2023-04-19T02:20:55;99602.50;;;14.33;57.66
15604;BME280;7902;49.042;9.092;2023-04-19T02:23:21;99598.69;;;14.26;57.67
15604;BME280;7902;49.042;9.092;2023-04-19T02:25:46;99596.50;;;14.31;57.17
15604;BME280;7902;49.042;9.092;2023-04-19T02:28:12;99596.16;;;14.25;58.12
15604;BME280;7902;49.042;9.092;2023-04-19T02:30:38;99598.69;;;14.26;57.67
15604;BME280;7902;49.042;9.092;2023-04-19T02:33:04;99588.13;;;14.26;57.53
15604;BME280;7902;49.042;9.092;2023-04-19T02:35:30;99591.00;;;14.23;57.55
15604;BME280;7902;49.042;9.092;2023-04-19T02:37:57;99595.81;;;14.18;58.30
15604;BME280;7902;49.042;9.092;2023-04-19T02:40:23;99593.41;;;14.26;58.27
15604;BME280;7902;49.042;9.092;2023-04-19T02:42:51;99592.78;;;14.23;57.46
15604;BME280;7902;49.042;9.092;2023-04-19T02:45:17;99592.19;;;14.19;58.64
15604;BME280;7902;49.042;9.092;2023-04-19T02:47:43;99588.97;;;14.16;58.70
15604;BME280;7902;49.042;9.092;2023-04-19T02:50:12;99591.63;;;14.16;57.71
15604;BME280;7902;49.042;9.092;2023-04-19T02:52:38;99596.63;;;14.19;57.78
15604;BME280;7902;49.042;9.092;2023-04-19T02:55:05;99591.63;;;14.16;58.37
15604;BME280;7902;49.042;9.092;2023-04-19T02:57:31;99590.78;;;14.15;58.04
15604;BME280;7902;49.042;9.092;2023-04-19T02:59:57;99588.88;;;14.17;58.53
15604;BME280;7902;49.042;9.092;2023-04-19T03:02:24;99588.03;;;14.17;57.95
15604;BME280;7902;49.042;9.092;2023-04-19T03:04:50;99588.59;;;14.20;57.86
15604;BME280;7902;49.042;9.092;2023-04-19T03:07:17;99587.19;;;14.16;57.94
15604;BME280;7902;49.042;9.092;2023-04-19T03:09:43;99578.31;;;14.17;57.85
15604;BME280;7902;49.042;9.092;2023-04-19T03:12:09;99593.31;;;14.17;58.57
15604;BME280;7902;49.042;9.092;2023-04-19T03:14:35;99581.63;;;14.08;57.95
15604;BME280;7902;49.042;9.092;2023-04-19T03:17:01;99575.41;;;14.09;57.99
15604;BME280;7902;49.042;9.092;2023-04-19T03:19:27;99568.69;;;14.05;58.43
15604;BME280;7902;49.042;9.092;2023-04-19T03:21:53;99573.72;;;14.08;57.81
15604;BME280;7902;49.042;9.092;2023-04-19T03:24:26;99570.13;;;14.09;58.24
15604;BME280;7902;49.042;9.092;2023-04-19T03:26:52;99570.97;;;14.10;57.96
15604;BME280;7902;49.042;9.092;2023-04-19T03:29:18;99571.22;;;14.06;58.03
15604;BME280;7902;49.042;9.092;2023-04-19T03:31:44;99575.66;;;14.06;58.60
15604;BME280;7902;49.042;9.092;2023-04-19T03:34:10;99572.53;;;14.01;58.77
15604;BME280;7902;49.042;9.092;2023-04-19T03:36:36;99568.00;;;14.03;58.04
15604;BME280;7902;49.042;9.092;2023-04-19T03:39:02;99566.53;;;13.99;58.18
15604;BME280;7902;49.042;9.092;2023-04-19T03:41:28;99573.97;;;14.05;57.39
15604;BME280;7902;49.042;9.092;2023-04-19T03:43:54;99563.66;;;14.02;57.81
15604;BME280;7902;49.042;9.092;2023-04-19T03:46:20;99560.53;;;13.97;58.09
15604;BME280;7902;49.042;9.092;2023-04-19T03:48:46;99559.94;;;14.04;58.74
15604;BME280;7902;49.042;9.092;2023-04-19T03:51:12;99561.25;;;13.99;58.12
15604;BME280;7902;49.042;9.092;2023-04-19T03:53:39;99570.25;;;13.96;57.51
15604;BME280;7902;49.042;9.092;2023-04-19T03:56:05;99568.94;;;13.91;58.51
15604;BME280;7902;49.042;9.092;2023-04-19T03:58:31;99567.41;;;13.88;57.91
15604;BME280;7902;49.042;9.092;2023-04-19T04:00:58;99566.19;;;13.81;58.09
15604;BME280;7902;49.042;9.092;2023-04-19T04:03:24;99566.06;;;13.83;58.33
15604;BME280;7902;49.042;9.092;2023-04-19T04:05:50;99566.66;;;13.75;59.07
15604;BME280;7902;49.042;9.092;2023-04-19T04:08:16;99563.91;;;13.77;58.37
15604;BME280;7902;49.042;9.092;2023-04-19T04:10:42;99569.53;;;13.72;58.14
15604;BME280;7902;49.042;9.092;2023-04-19T04:13:08;99568.09;;;13.68;59.39
15604;BME280;7902;49.042;9.092;2023-04-19T04:15:34;99569.31;;;13.64;59.27
15604;BME280;7902;49.042;9.092;2023-04-19T04:18:00;99578.06;;;13.65;58.82
15604;BME280;7902;49.042;9.092;2023-04-19T04:20:25;99579.25;;;13.60;58.39
15604;BME280;7902;49.042;9.092;2023-04-19T04:22:51;99577.22;;;13.64;58.75
15604;BME280;7902;49.042;9.092;2023-04-19T04:25:18;99577.56;;;13.71;58.95
15604;BME280;7902;49.042;9.092;2023-04-19T04:27:43;99582.34;;;13.66;58.91
15604;BME280;7902;49.042;9.092;2023-04-19T04:30:10;99579.25;;;13.72;58.77
15604;BME280;7902;49.042;9.092;2023-04-19T04:32:36;99591.75;;;13.70;59.30
15604;BME280;7902;49.042;9.092;2023-04-19T04:35:07;99581.19;;;13.70;58.30
15604;BME280;7902;49.042;9.092;2023-04-19T04:37:34;99583.34;;;13.65;58.49
15604;BME280;7902;49.042;9.092;2023-04-19T04:40:00;99584.28;;;13.63;58.38
15604;BME280;7902;49.042;9.092;2023-04-19T04:42:26;99586.69;;;13.55;59.01
15604;BME280;7902;49.042;9.092;2023-04-19T04:44:52;99589.53;;;13.52;59.29
15604;BME280;7902;49.042;9.092;2023-04-19T04:47:23;99588.34;;;13.56;59.14
15604;BME280;7902;49.042;9.092;2023-04-19T04:49:48;99586.44;;;13.58;58.58
15604;BME280;7902;49.042;9.092;2023-04-19T04:52:15;99585.22;;;13.51;58.76
15604;BME280;7902;49.042;9.092;2023-04-19T04:54:42;99587.19;;;13.60;59.11
15604;BME280;7902;49.042;9.092;2023-04-19T04:57:07;99587.53;;;13.56;59.04
15604;BME280;7902;49.042;9.092;2023-04-19T04:59:33;99585.22;;;13.51;58.64
15604;BME280;7902;49.042;9.092;2023-04-19T05:01:59;99586.91;;;13.52;58.72
15604;BME280;7902;49.042;9.092;2023-04-19T05:04:25;99590.50;;;13.51;59.46
15604;BME280;7902;49.042;9.092;2023-04-19T05:06:51;99588.94;;;13.49;59.00
15604;BME280;7902;49.042;9.092;2023-04-19T05:09:17;99587.88;;;13.51;58.68
15604;BME280;7902;49.042;9.092;2023-04-19T05:11:43;99593.28;;;13.50;58.66
15604;BME280;7902;49.042;9.092;2023-04-19T05:14:09;99595.06;;;13.49;59.22
15604;BME280;7902;49.042;9.092;2023-04-19T05:16:35;99595.91;;;13.50;58.56
15604;BME280;7902;49.042;9.092;2023-04-19T05:19:00;99592.19;;;13.52;58.44
15604;BME280;7902;49.042;9.092;2023-04-19T05:21:26;99589.31;;;13.44;59.16
15604;BME280;7902;49.042;9.092;2023-04-19T05:23:52;99599.97;;;13.43;58.76
15604;BME280;7902;49.042;9.092;2023-04-19T05:26:18;99593.84;;;13.42;58.85
15604;BME280;7902;49.042;9.092;2023-04-19T05:28:44;99599.25;;;13.41;59.24
15604;BME280;7902;49.042;9.092;2023-04-19T05:31:10;99597.31;;;13.43;59.16
15604;BME280;7902;49.042;9.092;2023-04-19T05:33:37;99597.59;;;13.51;59.12
15604;BME280;7902;49.042;9.092;2023-04-19T05:36:03;99601.06;;;13.51;59.23
15604;BME280;7902;49.042;9.092;2023-04-19T05:38:29;99600.84;;;13.54;59.11
15604;BME280;7902;49.042;9.092;2023-04-19T05:40:54;99597.97;;;13.46;58.84
15604;BME280;7902;49.042;9.092;2023-04-19T05:43:20;99595.66;;;13.42;58.92
15604;BME280;7902;49.042;9.092;2023-04-19T05:45:46;99604.19;;;13.45;58.69
15604;BME280;7902;49.042;9.092;2023-04-19T05:48:12;99600.47;;;13.48;59.46
15604;BME280;7902;49.042;9.092;2023-04-19T05:50:38;99592.91;;;13.43;58.75
15604;BME280;7902;49.042;9.092;2023-04-19T05:53:04;99599.59;;;13.47;59.33
15604;BME280;7902;49.042;9.092;2023-04-19T05:55:30;99601.28;;;13.48;58.73
15604;BME280;7902;49.042;9.092;2023-04-19T05:57:57;99596.63;;;13.52;59.01
15604;BME280;7902;49.042;9.092;2023-04-19T06:00:23;99598.31;;;13.53;59.30
15604;BME280;7902;49.042;9.092;2023-04-19T06:02:49;99600.59;;;13.57;58.43
15604;BME280;7902;49.042;9.092;2023-04-19T06:05:15;99597.72;;;13.49;58.70
15604;BME280;7902;49.042;9.092;2023-04-19T06:07:41;99595.34;;;13.69;58.26
15604;BME280;7902;49.042;9.092;2023-04-19T06:10:07;99600.25;;;13.62;58.83
15604;BME280;7902;49.042;9.092;2023-04-19T06:12:33;99603.00;;;13.72;58.91
15604;BME280;7902;49.042;9.092;2023-04-19T06:14:59;99596.03;;;13.71;58.64
15604;BME280;7902;49.042;9.092;2023-04-19T06:17:25;99592.44;;;13.72;58.78
15604;BME280;7902;49.042;9.092;2023-04-19T06:19:52;99589.44;;;13.76;58.14
15604;BME280;7902;49.042;9.092;2023-04-19T06:22:18;99593.03;;;13.75;59.10
15604;BME280;7902;49.042;9.092;2023-04-19T06:24:45;99592.94;;;13.88;58.27
15604;BME280;7902;49.042;9.092;2023-04-19T06:27:11;99593.06;;;13.86;58.16
15604;BME280;7902;49.042;9.092;2023-04-19T06:29:38;99592.94;;;13.88;57.96
15604;BME280;7902;49.042;9.092;2023-04-19T06:32:04;99591.75;;;13.92;58.72
15604;BME280;7902;49.042;9.092;2023-04-19T06:34:30;99588.88;;;14.06;58.31
15604;BME280;7902;49.042;9.092;2023-04-19T06:36:55;99595.69;;;14.08;58.31
15604;BME280;7902;49.042;9.092;2023-04-19T06:39:21;99595.09;;;14.16;58.28
15604;BME280;7902;49.042;9.092;2023-04-19T06:41:47;99593.03;;;14.20;57.97
15604;BME280;7902;49.042;9.092;2023-04-19T06:44:13;99594.22;;;14.27;57.37
15604;BME280;7902;49.042;9.092;2023-04-19T06:46:39;99589.09;;;14.14;57.79
15604;BME280;7902;49.042;9.092;2023-04-19T06:49:05;99595.22;;;14.26;57.32
15604;BME280;7902;49.042;9.092;2023-04-19T06:51:32;99589.09;;;14.25;58.04
15604;BME280;7902;49.042;9.092;2023-04-19T06:53:58;99593.16;;;14.29;57.84
15604;BME280;7902;49.042;9.092;2023-04-19T06:56:50;99591.22;;;14.31;58.24
15604;BME280;7902;49.042;9.092;2023-04-19T06:59:18;99588.34;;;14.34;58.63
15604;BME280;7902;49.042;9.092;2023-04-19T07:01:44;99591.22;;;14.31;58.67
15604;BME280;7902;49.042;9.092;2023-04-19T07:04:11;99592.06;;;14.32;58.67
15604;BME280;7902;49.042;9.092;2023-04-19T07:06:38;99584.75;;;14.35;57.74
15604;BME280;7902;49.042;9.092;2023-04-19T07:09:05;99582.09;;;14.35;58.21
15604;BME280;7902;49.042;9.092;2023-04-19T07:11:31;99584.41;;;14.40;58.45
15604;BME280;7902;49.042;9.092;2023-04-19T07:13:57;99576.81;;;14.35;58.82
15604;BME280;7902;49.042;9.092;2023-04-19T07:16:26;99572.28;;;14.37;59.06
15604;BME280;7902;49.042;9.092;2023-04-19T07:18:51;99565.28;;;14.47;58.97
15604;BME280;7902;49.042;9.092;2023-04-19T07:21:17;99567.19;;;14.45;58.99
15604;BME280;7902;49.042;9.092;2023-04-19T07:23:43;99566.25;;;14.46;57.67
15604;BME280;7902;49.042;9.092;2023-04-19T07:26:10;99561.41;;;14.52;58.50
15604;BME280;7902;49.042;9.092;2023-04-19T07:28:35;99559.97;;;14.59;57.86
15604;BME280;7902;49.042;9.092;2023-04-19T07:31:01;99564.06;;;14.52;58.09
15604;BME280;7902;49.042;9.092;2023-04-19T07:33:27;99567.28;;;14.55;57.72
15604;BME280;7902;49.042;9.092;2023-04-19T07:35:54;99567.44;;;14.54;58.99
15604;BME280;7902;49.042;9.092;2023-04-19T07:38:21;99560.13;;;14.46;59.02
15604;BME280;7902;49.042;9.092;2023-04-19T07:40:47;99560.97;;;14.46;58.70
15604;BME280;7902;49.042;9.092;2023-04-19T07:43:13;99563.38;;;14.49;58.55
15604;BME280;7902;49.042;9.092;2023-04-19T07:45:39;99567.91;;;14.59;57.54
15604;BME280;7902;49.042;9.092;2023-04-19T07:48:05;99565.03;;;14.50;58.99
15604;BME280;7902;49.042;9.092;2023-04-19T07:50:31;99570.91;;;14.54;59.05
15604;BME280;7902;49.042;9.092;2023-04-19T07:52:57;99562.63;;;14.47;59.21
15604;BME280;7902;49.042;9.092;2023-04-19T07:55:23;99567.06;;;14.58;58.10
15604;BME280;7902;49.042;9.092;2023-04-19T07:57:49;99565.13;;;14.60;58.70
15604;BME280;7902;49.042;9.092;2023-04-19T08:00:16;99561.03;;;14.67;58.14
15604;BME280;7902;49.042;9.092;2023-04-19T08:02:46;99564.03;;;14.63;59.12
15604;BME280;7902;49.042;9.092;2023-04-19T08:05:13;99561.59;;;14.71;57.98
15604;BME280;7902;49.042;9.092;2023-04-19T08:07:42;99561.59;;;14.71;57.73
15604;BME280;7902;49.042;9.092;2023-04-19T08:10:08;99560.06;;;14.68;57.71
15604;BME280;7902;49.042;9.092;2023-04-19T08:12:34;99554.25;;;14.74;58.52
15604;BME280;7902;49.042;9.092;2023-04-19T08:15:01;99555.84;;;14.66;57.92
15604;BME280;7902;49.042;9.092;2023-04-19T08:17:27;99556.19;;;14.72;57.80
15604;BME280;7902;49.042;9.092;2023-04-19T08:19:53;99547.44;;;14.72;57.83
15604;BME280;7902;49.042;9.092;2023-04-19T08:22:20;99555.63;;;14.69;58.01
15604;BME280;7902;49.042;9.092;2023-04-19T08:24:48;99546.66;;;14.81;58.41
15604;BME280;7902;49.042;9.092;2023-04-19T08:27:14;99545.47;;;14.74;58.46
15604;BME280;7902;49.042;9.092;2023-04-19T08:29:40;99543.09;;;14.71;58.24
15604;BME280;7902;49.042;9.092;2023-04-19T08:32:06;99544.06;;;14.70;57.84
15604;BME280;7902;49.042;9.092;2023-04-19T08:34:35;99533.44;;;14.81;58.68
15604;BME280;7902;49.042;9.092;2023-04-19T08:37:02;99530.91;;;14.79;57.60
15604;BME280;7902;49.042;9.092;2023-04-19T08:39:30;99532.47;;;14.82;57.46
15604;BME280;7902;49.042;9.092;2023-04-19T08:41:56;99529.03;;;14.70;58.18
15604;BME280;7902;49.042;9.092;2023-04-19T08:44:24;99531.91;;;14.78;58.35
15604;BME280;7902;49.042;9.092;2023-04-19T08:46:51;99521.06;;;14.81;57.97
15604;BME280;7902;49.042;9.092;2023-04-19T08:49:17;99523.81;;;14.80;57.62
15604;BME280;7902;49.042;9.092;2023-04-19T08:51:48;99525.50;;;14.81;57.41
15604;BME280;7902;49.042;9.092;2023-04-19T08:54:14;99515.28;;;14.87;58.06
15604;BME280;7902;49.042;9.092;2023-04-19T08:56:41;99514.44;;;14.87;57.29
15604;BME280;7902;49.042;9.092;2023-04-19T08:59:07;99515.84;;;14.91;57.35
15604;BME280;7902;49.042;9.092;2023-04-19T09:01:33;99514.16;;;14.90;57.44
15604;BME280;7902;49.042;9.092;2023-04-19T09:03:59;99509.34;;;14.95;57.95
15604;BME280;7902;49.042;9.092;2023-04-19T09:06:24;99506.41;;;14.98;58.19
15604;BME280;7902;49.042;9.092;2023-04-19T09:08:51;99504.63;;;14.99;58.33
15604;BME280;7902;49.042;9.092;2023-04-19T09:11:35;99497.78;;;14.96;57.40
15604;BME280;7902;49.042;9.092;2023-04-19T09:14:09;99492.25;;;14.99;57.04
15604;BME280;7902;49.042;9.092;2023-04-19T09:16:35;99499.34;;;14.99;57.78
15604;BME280;7902;49.042;9.092;2023-04-19T09:19:02;99498.03;;;14.93;57.87
15604;BME280;7902;49.042;9.092;2023-04-19T09:21:29;99486.84;;;15.01;57.62
15604;BME280;7902;49.042;9.092;2023-04-19T09:23:56;99487.69;;;15.01;57.17
15604;BME280;7902;49.042;9.092;2023-04-19T09:26:22;99492.06;;;14.91;57.42
15604;BME280;7902;49.042;9.092;2023-04-19T09:28:56;99482.50;;;15.00;57.17
15604;BME280;7902;49.042;9.092;2023-04-19T09:31:23;99484.75;;;15.04;57.17
15604;BME280;7902;49.042;9.092;2023-04-19T09:33:50;99478.63;;;15.04;57.01
15604;BME280;7902;49.042;9.092;2023-04-19T09:36:26;99484.25;;;15.10;57.25
15604;BME280;7902;49.042;9.092;2023-04-19T09:38:53;99481.00;;;15.07;57.38
15604;BME280;7902;49.042;9.092;2023-04-19T09:41:19;99480.44;;;15.03;56.96
15604;BME280;7902;49.042;9.092;2023-04-19T09:43:45;99480.19;;;15.06;57.28
15604;BME280;7902;49.042;9.092;2023-04-19T09:46:32;99475.53;;;15.19;56.51
15604;BME280;7902;49.042;9.092;2023-04-19T09:49:19;99463.94;;;15.11;57.60
15604;BME280;7902;49.042;9.092;2023-04-19T09:51:46;99468.56;;;15.18;57.29
15604;BME280;7902;49.042;9.092;2023-04-19T09:54:13;99459.66;;;15.19;57.27
15604;BME280;7902;49.042;9.092;2023-04-19T09:56:40;99463.25;;;15.18;56.95
15604;BME280;7902;49.042;9.092;2023-04-19T09:59:07;99463.00;;;15.21;57.57
15604;BME280;7902;49.042;9.092;2023-04-19T10:01:36;99465.78;;;15.20;56.52
15604;BME280;7902;49.042;9.092;2023-04-19T10:04:06;99458.13;;;15.26;57.84
15604;BME280;7902;49.042;9.092;2023-04-19T10:06:34;99458.97;;;15.27;57.33
15604;BME280;7902;49.042;9.092;2023-04-19T10:09:01;99462.31;;;15.19;56.93
15604;BME280;7902;49.042;9.092;2023-04-19T10:11:32;99460.09;;;15.24;56.48
15604;BME280;7902;49.042;9.092;2023-04-19T10:14:07;99460.09;;;15.24;57.59
15604;BME280;7902;49.042;9.092;2023-04-19T10:16:35;99457.19;;;15.27;57.32
15604;BME280;7902;49.042;9.092;2023-04-19T10:19:03;99452.34;;;15.32;57.63
15604;BME280;7902;49.042;9.092;2023-04-19T10:21:30;99461.19;;;15.22;57.44
15604;BME280;7902;49.042;9.092;2023-04-19T10:23:57;99447.31;;;15.29;57.00
15604;BME280;7902;49.042;9.092;2023-04-19T10:26:24;99452.84;;;15.26;57.13
15604;BME280;7902;49.042;9.092;2023-04-19T10:28:50;99455.38;;;15.28;57.50
15604;BME280;7902;49.042;9.092;2023-04-19T10:31:19;99455.94;;;15.31;56.73
15604;BME280;7902;49.042;9.092;2023-04-19T10:33:49;99449.16;;;15.38;57.15
15604;BME280;7902;49.042;9.092;2023-04-19T10:36:16;99450.28;;;15.46;56.67
15604;BME280;7902;49.042;9.092;2023-04-19T10:38:44;99449.88;;;15.50;57.25
15604;BME280;7902;49.042;9.092;2023-04-19T10:41:16;99453.22;;;15.43;57.46
15604;BME280;7902;49.042;9.092;2023-04-19T10:43:46;99442.19;;;15.37;57.28
15604;BME280;7902;49.042;9.092;2023-04-19T10:48:58;99435.38;;;15.45;56.64
15604;BME280;7902;49.042;9.092;2023-04-19T10:51:31;99432.84;;;15.33;56.79
15604;BME280;7902;49.042;9.092;2023-04-19T10:54:04;99434.41;;;15.46;57.20
15604;BME280;7902;49.042;9.092;2023-04-19T11:01:35;99425.06;;;15.42;56.74
15604;BME280;7902;49.042;9.092;2023-04-19T11:04:11;99424.16;;;15.52;57.28
15604;BME280;7902;49.042;9.092;2023-04-19T11:09:26;99414.91;;;15.47;56.96
15604;BME280;7902;49.042;9.092;2023-04-19T11:11:53;99415.75;;;15.47;57.20
15604;BME280;7902;49.042;9.092;2023-04-19T11:14:22;99418.53;;;15.46;57.12
15604;BME280;7902;49.042;9.092;2023-04-19T11:16:48;99417.84;;;15.44;56.35
15604;BME280;7902;49.042;9.092;2023-04-19T11:19:17;99409.56;;;15.58;56.46
15604;BME280;7902;49.042;9.092;2023-04-19T11:21:44;99407.69;;;15.49;56.71
15604;BME280;7902;49.042;9.092;2023-04-19T11:24:11;99399.22;;;15.55;56.25
15604;BME280;7902;49.042;9.092;2023-04-19T11:26:37;99401.88;;;15.55;56.36
15604;BME280;7902;49.042;9.092;2023-04-19T11:29:03;99397.25;;;15.47;57.09
15604;BME280;7902;49.042;9.092;2023-04-19T11:31:31;99396.50;;;15.35;57.12
15604;BME280;7902;49.042;9.092;2023-04-19T11:33:58;99400.28;;;15.43;57.30
15604;BME280;7902;49.042;9.092;2023-04-19T11:36:27;99395.50;;;15.27;58.46
15604;BME280;7902;49.042;9.092;2023-04-19T11:38:53;99397.47;;;15.34;58.16
15604;BME280;7902;49.042;9.092;2023-04-19T11:41:19;99399.25;;;15.24;58.57
15604;BME280;7902;49.042;9.092;2023-04-19T11:43:45;99393.28;;;15.32;57.54
15604;BME280;7902;49.042;9.092;2023-04-19T11:46:13;99388.84;;;15.32;57.67
15604;BME280;7902;49.042;9.092;2023-04-19T11:48:49;99387.88;;;15.33;57.76
15604;BME280;7902;49.042;9.092;2023-04-19T11:51:16;99394.13;;;15.32;58.55
15604;BME280;7902;49.042;9.092;2023-04-19T11:53:42;99385.47;;;15.30;58.42
15604;BME280;7902;49.042;9.092;2023-04-19T11:56:09;99390.50;;;15.33;57.94
15604;BME280;7902;49.042;9.092;2023-04-19T12:01:20;99389.22;;;15.28;58.08
15604;BME280;7902;49.042;9.092;2023-04-19T12:03:51;99392.28;;;15.23;57.25
15604;BME280;7902;49.042;9.092;2023-04-19T12:06:21;99390.44;;;15.14;58.09
15604;BME280;7902;49.042;9.092;2023-04-19T12:08:50;99381.13;;;15.20;57.42
15604;BME280;7902;49.042;9.092;2023-04-19T12:11:18;99382.13;;;15.28;57.14
15604;BME280;7902;49.042;9.092;2023-04-19T12:13:47;99378.88;;;15.15;57.26
15604;BME280;7902;49.042;9.092;2023-04-19T12:16:13;99376.94;;;15.17;57.24
15604;BME280;7902;49.042;9.092;2023-04-19T12:18:47;99373.59;;;15.15;56.80
15604;BME280;7902;49.042;9.092;2023-04-19T12:21:29;99370.50;;;15.10;57.25
15604;BME280;7902;49.042;9.092;2023-04-19T12:23:58;99373.59;;;15.15;56.83
15604;BME280;7902;49.042;9.092;2023-04-19T12:26:26;99375.09;;;15.08;56.92
15604;BME280;7902;49.042;9.092;2023-04-19T12:28:54;99364.66;;;15.16;56.43
15604;BME280;7902;49.042;9.092;2023-04-19T12:31:20;99368.31;;;15.15;56.03
15604;BME280;7902;49.042;9.092;2023-04-19T12:33:46;99362.22;;;15.24;56.57
15604;BME280;7902;49.042;9.092;2023-04-19T12:36:12;99367.22;;;15.27;56.21
15604;BME280;7902;49.042;9.092;2023-04-19T12:38:39;99368.16;;;15.17;55.87
15604;BME280;7902;49.042;9.092;2023-04-19T12:41:05;99364.03;;;15.24;56.58
15604;BME280;7902;49.042;9.092;2023-04-19T12:43:31;99363.47;;;15.20;57.28
15604;BME280;7902;49.042;9.092;2023-04-19T12:45:58;99354.25;;;15.15;56.48
15604;BME280;7902;49.042;9.092;2023-04-19T12:48:24;99354.28;;;15.24;56.38
15604;BME280;7902;49.042;9.092;2023-04-19T12:50:51;99348.19;;;15.33;56.18
15604;BME280;7902;49.042;9.092;2023-04-19T12:53:17;99349.22;;;15.21;56.36
15604;BME280;7902;49.042;9.092;2023-04-19T12:55:43;99343.69;;;15.24;56.17
15604;BME280;7902;49.042;9.092;2023-04-19T12:58:12;99345.13;;;15.38;56.23
15604;BME280;7902;49.042;9.092;2023-04-19T13:00:38;99338.13;;;15.27;56.60
15604;BME280;7902;49.042;9.092;2023-04-19T13:03:04;99344.28;;;15.37;56.10
15604;BME280;7902;49.042;9.092;2023-04-19T13:05:30;99336.75;;;15.33;57.05
15604;BME280;7902;49.042;9.092;2023-04-19T13:07:56;99324.63;;;15.30;57.02
15604;BME280;7902;49.042;9.092;2023-04-19T13:10:22;99334.81;;;15.45;56.53
15604;BME280;7902;49.042;9.092;2023-04-19T13:12:48;99328.28;;;15.39;56.58
15604;BME280;7902;49.042;9.092;2023-04-19T13:15:14;99327.31;;;15.50;55.90
15604;BME280;7902;49.042;9.092;2023-04-19T13:17:40;99322.16;;;15.38;56.11
15604;BME280;7902;49.042;9.092;2023-04-19T13:20:07;99314.34;;;15.47;55.51
15604;BME280;7902;49.042;9.092;2023-04-19T13:22:34;99311.69;;;15.37;57.17